Old Hickory Observed Data For Previous 48 Hours

Caption
Day and Hour Reservoir Elevation (behind dam)* Tailwater Elevation (below dam)* Average Hourly Discharge*
9/20/2018 1 AM CDT 444.52 386.99 5,700
9/20/2018 2 AM CDT 444.57 386.87 5,700
9/20/2018 3 AM CDT 444.61 386.83 5,700
9/20/2018 4 AM CDT 444.67 386.83 5,700
9/20/2018 5 AM CDT 444.67 386.84 5,700
9/20/2018 6 AM CDT 444.67 386.84 5,700
9/20/2018 7 AM CDT 444.58 387.09 5,700
9/20/2018 8 AM CDT 444.55 387.11 5,700
9/20/2018 9 AM CDT 444.50 387.21 5,700
9/20/2018 10 AM CDT 444.46 387.19 5,700
9/20/2018 11 AM CDT 444.49 387.13 5,700
9/20/2018 12 PM CDT 444.52 388.84 11,800
9/20/2018 1 PM CDT 444.55 391.00 18,600
9/20/2018 2 PM CDT 444.57 391.57 18,600
9/20/2018 3 PM CDT 444.55 391.94 18,900
9/20/2018 4 PM CDT 444.55 392.26 18,900
9/20/2018 5 PM CDT 444.53 392.48 19,200
9/20/2018 6 PM CDT 444.53 392.56 19,200
9/20/2018 7 PM CDT 444.52 392.69 19,200
9/20/2018 8 PM CDT 444.61 390.79 12,200
9/20/2018 9 PM CDT 444.67 389.33 5,900
9/20/2018 10 PM CDT 444.64 388.55 5,900
9/20/2018 11 PM CDT 444.69 387.99 5,800
9/21/2018 12 AM CDT 444.74 387.81 5,800
9/21/2018 1 AM CDT 444.79 387.53 5,700
9/21/2018 2 AM CDT 444.84 387.25 5,700
9/21/2018 3 AM CDT 444.88 387.20 5,700
9/21/2018 4 AM CDT 444.88 387.05 5,700
9/21/2018 5 AM CDT 444.82 387.03 5,700
9/21/2018 6 AM CDT 444.80 386.98 5,700
9/21/2018 7 AM CDT 444.75 387.01 5,700
9/21/2018 8 AM CDT 444.71 387.01 5,700
9/21/2018 9 AM CDT 444.65 386.98 5,700
9/21/2018 10 AM CDT 444.65 387.00 5,700
9/21/2018 11 AM CDT 444.65 387.22 5,700
9/21/2018 12 PM CDT 444.51 388.67 11,800
9/21/2018 1 PM CDT 444.51 391.01 18,600
9/21/2018 2 PM CDT 444.58 391.57 18,600
9/21/2018 3 PM CDT 444.63 392.26 18,900
9/21/2018 4 PM CDT 444.64 392.23 18,900
9/21/2018 5 PM CDT 444.60 392.43 19,200
9/21/2018 6 PM CDT 444.58 392.72 19,200
9/21/2018 7 PM CDT 444.60 391.99 19,200
9/21/2018 8 PM CDT 444.62 391.26 12,400
9/21/2018 9 PM CDT 444.72 389.56 6,000
9/21/2018 10 PM CDT 444.74 388.63 5,900
9/21/2018 11 PM CDT 444.74 387.95 5,800
9/22/2018 12 AM CDT 444.76 387.64 5,800
9/22/2018 1 AM CDT 444.82 387.25 5,700
9/22/2018 2 AM CDT 444.79 386.99 5,700
9/22/2018 3 AM CDT 444.75 386.88 5,700
9/22/2018 4 AM CDT 444.72 386.82 5,700
9/22/2018 5 AM CDT 444.67 386.78 5,700
9/22/2018 6 AM CDT 444.65 386.76 5,700
9/22/2018 7 AM CDT 444.62 387.22 5,700
9/22/2018 8 AM CDT 444.61 387.21 5,700
9/22/2018 9 AM CDT 444.60 386.90 5,700
9/22/2018 10 AM CDT 444.67 386.97 5,700
9/22/2018 11 AM CDT 444.72 387.02 5,700
9/22/2018 12 PM CDT 444.77 386.97 5,700

Elevations are in feet above sea level. Discharges are in cubic feet per second and are reported at the end of the hour.